createdAt,value
2018-03-19T00:00:12.663Z,71.03
2018-03-19T00:02:40.141Z,61.23
2018-03-19T00:05:07.597Z,62.67
2018-03-19T00:07:35.067Z,64.50
2018-03-19T00:10:02.529Z,66.50
2018-03-19T00:12:29.992Z,65.60
2018-03-19T00:14:57.449Z,61.57
2018-03-19T00:17:24.929Z,57.83
2018-03-19T00:19:53.153Z,58.43
2018-03-19T00:22:20.616Z,67.90
2018-03-19T00:24:48.073Z,62.43
2018-03-19T00:27:15.549Z,56.33
2018-03-19T00:29:43.015Z,61.50
2018-03-19T00:32:10.483Z,58.57
2018-03-19T00:34:38.717Z,66.37
2018-03-19T00:37:06.184Z,59.17
2018-03-19T00:39:33.641Z,57.73
2018-03-19T00:42:01.105Z,53.67
2018-03-19T00:44:28.568Z,55.63
2018-03-19T00:46:56.047Z,59.57
2018-03-19T00:49:24.264Z,60.13
2018-03-19T00:51:51.740Z,58.33
2018-03-19T00:54:19.203Z,61.40
2018-03-19T00:56:46.684Z,65.53
2018-03-19T00:59:14.152Z,58.20
2018-03-19T01:01:42.383Z,67.93
2018-03-19T01:04:09.859Z,65.73
2018-03-19T01:06:37.318Z,69.93
2018-03-19T01:09:04.792Z,59.33
2018-03-19T01:11:32.248Z,63.53
2018-03-19T01:14:00.478Z,56.77
2018-03-19T01:16:27.928Z,56.90
2018-03-19T01:18:55.400Z,55.80
2018-03-19T01:21:22.851Z,55.67
2018-03-19T01:23:51.092Z,57.70
2018-03-19T01:26:18.549Z,53.40
2018-03-19T01:28:46.776Z,57.77
2018-03-19T01:31:14.237Z,50.30
2018-03-19T01:33:41.706Z,57.73
2018-03-19T01:36:09.165Z,53.77
2018-03-19T01:38:36.633Z,61.13
2018-03-19T01:41:04.862Z,59.23
2018-03-19T01:43:32.336Z,54.17
2018-03-19T01:45:59.788Z,59.73
2018-03-19T01:48:27.258Z,58.17
2018-03-19T01:50:54.726Z,63.33
2018-03-19T01:53:22.196Z,58.17
2018-03-19T01:55:49.659Z,62.23
2018-03-19T01:58:17.896Z,57.80
2018-03-19T02:00:45.365Z,58.00
2018-03-19T02:03:12.830Z,57.53
2018-03-19T02:05:40.292Z,53.77
2018-03-19T02:08:07.759Z,56.70
2018-03-19T02:10:35.221Z,59.67
2018-03-19T02:13:03.456Z,55.37
2018-03-19T02:15:30.920Z,58.30
2018-03-19T02:17:58.375Z,56.07
2018-03-19T02:20:25.848Z,56.40
2018-03-19T02:22:53.304Z,52.93
2018-03-19T02:25:20.776Z,64.90
2018-03-19T02:27:48.231Z,60.70
2018-03-19T02:30:15.700Z,60.93
2018-03-19T02:32:43.939Z,56.50
2018-03-19T02:35:11.405Z,59.57
2018-03-19T02:37:38.868Z,61.90
2018-03-19T02:40:07.260Z,56.47
2018-03-19T02:42:34.725Z,56.30
2018-03-19T02:45:02.957Z,66.13
2018-03-19T02:47:30.411Z,60.30
2018-03-19T02:49:57.895Z,60.40
2018-03-19T02:52:25.352Z,57.93
2018-03-19T02:54:52.818Z,64.03
2018-03-19T02:57:20.276Z,61.73
2018-03-19T02:59:47.753Z,63.23
2018-03-19T03:02:15.971Z,55.80
2018-03-19T03:04:43.440Z,61.90
2018-03-19T03:07:10.899Z,61.10
2018-03-19T03:09:38.365Z,63.10
2018-03-19T03:12:05.831Z,59.80
2018-03-19T03:14:33.288Z,60.23
2018-03-19T03:17:00.754Z,54.13
2018-03-19T03:19:28.216Z,57.00
2018-03-19T03:21:55.689Z,56.30
2018-03-19T03:24:23.909Z,58.20
2018-03-19T03:26:51.380Z,58.80
2018-03-19T03:29:18.837Z,55.30
2018-03-19T03:31:46.356Z,58.50
2018-03-19T03:34:13.784Z,55.90
2018-03-19T03:36:41.292Z,55.10
2018-03-19T03:39:08.753Z,56.63
2018-03-19T03:41:36.220Z,55.97
2018-03-19T03:44:03.679Z,55.67
2018-03-19T03:46:31.161Z,45.53
2018-03-19T03:48:58.621Z,53.30
2018-03-19T03:51:26.092Z,63.30
2018-03-19T03:53:54.316Z,51.57
2018-03-19T03:56:21.783Z,57.50
2018-03-19T03:58:49.236Z,54.57
2018-03-19T04:01:16.700Z,53.90
2018-03-19T04:03:44.160Z,51.27
2018-03-19T04:06:11.629Z,58.73
2018-03-19T04:08:39.086Z,54.80
2018-03-19T04:11:06.548Z,56.90
2018-03-19T04:13:34.001Z,59.87
2018-03-19T04:16:01.472Z,60.40
2018-03-19T04:18:28.941Z,52.60
2018-03-19T04:20:57.197Z,60.60
2018-03-19T04:23:24.665Z,62.40
2018-03-19T04:25:52.124Z,70.60
2018-03-19T04:28:19.608Z,61.63
2018-03-19T04:30:47.824Z,61.27
2018-03-19T04:33:15.293Z,72.97
2018-03-19T04:35:42.750Z,62.20
2018-03-19T04:38:10.237Z,60.77
2018-03-19T04:40:38.465Z,59.60
2018-03-19T04:43:06.499Z,66.90
2018-03-19T04:45:33.964Z,63.83
2018-03-19T04:48:01.440Z,70.13
2018-03-19T04:50:28.898Z,62.80
2018-03-19T04:52:56.356Z,57.77
2018-03-19T04:55:23.812Z,53.73
2018-03-19T04:57:51.290Z,58.13
2018-03-19T05:00:18.755Z,54.67
2018-03-19T05:02:46.232Z,52.93
2018-03-19T05:05:13.691Z,58.97
2018-03-19T05:07:41.153Z,57.57
2018-03-19T05:10:08.644Z,59.23
2018-03-19T05:12:36.107Z,63.67
2018-03-19T05:15:03.569Z,51.53
2018-03-19T05:17:31.033Z,57.43
2018-03-19T05:19:58.500Z,61.57
2018-03-19T05:22:25.974Z,66.00
2018-03-19T05:24:53.437Z,58.60
2018-03-19T05:27:20.896Z,60.20
2018-03-19T05:29:48.360Z,55.47
2018-03-19T05:32:15.829Z,54.60
2018-03-19T05:34:43.291Z,54.10
2018-03-19T05:37:11.515Z,54.67
2018-03-19T05:39:38.980Z,55.60
2018-03-19T05:42:06.439Z,48.80
2018-03-19T05:44:33.932Z,55.47
2018-03-19T05:47:01.389Z,61.73
2018-03-19T05:49:28.860Z,58.77
2018-03-19T05:51:57.097Z,51.30
2018-03-19T05:54:24.572Z,50.50
2018-03-19T05:56:52.034Z,53.50
2018-03-19T05:59:19.504Z,53.10
2018-03-19T06:01:47.730Z,49.27
2018-03-19T06:04:15.197Z,52.07
2018-03-19T06:06:42.719Z,52.50
2018-03-19T06:09:10.946Z,53.77
2018-03-19T06:11:38.404Z,53.47
2018-03-19T06:14:05.888Z,50.77
2018-03-19T06:16:34.112Z,60.07
2018-03-19T06:19:01.595Z,58.50
2018-03-19T06:21:29.063Z,52.60
2018-03-19T06:23:56.527Z,49.20
2018-03-19T06:26:24.761Z,60.33
2018-03-19T06:28:52.224Z,55.67
2018-03-19T06:31:19.696Z,59.13
2018-03-19T06:33:47.164Z,53.80
2018-03-19T06:36:14.627Z,51.43
2018-03-19T06:38:42.088Z,60.73
2018-03-19T06:41:09.559Z,56.47
2018-03-19T06:43:37.773Z,50.83
2018-03-19T06:46:05.241Z,52.77
2018-03-19T06:48:32.708Z,51.87
2018-03-19T06:51:00.193Z,57.00
2018-03-19T06:53:27.644Z,56.30
2018-03-19T06:55:55.116Z,57.70
2018-03-19T06:58:23.332Z,60.43
2018-03-19T07:00:50.863Z,56.90
2018-03-19T07:03:18.281Z,55.30
2018-03-19T07:05:45.753Z,59.00
2018-03-19T07:08:13.209Z,60.47
2018-03-19T07:10:40.693Z,54.60
2018-03-19T07:13:08.910Z,53.87
2018-03-19T07:15:36.384Z,57.83
2018-03-19T07:18:03.842Z,54.63
2018-03-19T07:20:31.352Z,56.77
2018-03-19T07:22:58.823Z,56.73
2018-03-19T07:25:26.291Z,55.80
2018-03-19T07:27:53.749Z,58.77
2018-03-19T07:30:21.218Z,58.27
2018-03-19T07:32:48.693Z,54.43
2018-03-19T07:35:16.151Z,62.30
2018-03-19T07:37:43.944Z,59.17
2018-03-19T07:40:12.179Z,62.60
2018-03-19T07:42:39.654Z,62.17
2018-03-19T07:45:07.105Z,56.57
2018-03-19T07:47:34.588Z,60.80
2018-03-19T07:50:02.813Z,49.00
2018-03-19T07:52:30.288Z,54.30
2018-03-19T07:54:57.746Z,56.77
2018-03-19T07:57:25.261Z,53.60
2018-03-19T07:59:52.723Z,54.73
2018-03-19T08:02:20.199Z,54.93
2018-03-19T08:04:47.663Z,54.60
2018-03-19T08:07:15.136Z,45.73
2018-03-19T08:09:42.599Z,55.93
2018-03-19T08:12:10.113Z,61.40
2018-03-19T08:14:37.541Z,55.97
2018-03-19T08:17:05.792Z,50.70
2018-03-19T08:19:33.256Z,48.30
2018-03-19T08:22:00.725Z,56.10
2018-03-19T08:24:28.952Z,51.50
2018-03-19T08:27:06.159Z,56.17
2018-03-19T08:29:33.633Z,55.43
2018-03-19T08:32:01.097Z,48.90
2018-03-19T08:34:28.571Z,52.17
2018-03-19T08:36:56.801Z,51.03
2018-03-19T08:39:24.267Z,48.13
2018-03-19T08:41:51.799Z,55.63
2018-03-19T08:44:19.213Z,51.67
2018-03-19T08:46:47.448Z,47.93
2018-03-19T08:49:14.912Z,56.20
2018-03-19T08:51:42.373Z,49.03
2018-03-19T08:54:09.847Z,57.67
2018-03-19T08:56:37.308Z,52.20
2018-03-19T08:59:04.869Z,50.80
2018-03-19T09:01:32.779Z,51.93
2018-03-19T09:04:00.260Z,50.43
2018-03-19T09:06:27.725Z,48.43
2018-03-19T09:08:55.204Z,50.03
2018-03-19T09:11:22.681Z,51.90
2018-03-19T09:13:50.917Z,57.50
2018-03-19T09:16:19.144Z,51.70
2018-03-19T09:18:46.621Z,51.80
2018-03-19T09:21:14.077Z,49.63
2018-03-19T09:23:41.550Z,46.70
2018-03-19T09:26:09.005Z,54.67
2018-03-19T09:28:36.480Z,51.40
2018-03-19T09:31:03.991Z,47.73
2018-03-19T09:33:31.408Z,46.60
2018-03-19T09:35:58.881Z,50.13
2018-03-19T09:38:26.333Z,50.07
2018-03-19T09:40:53.807Z,51.10
2018-03-19T09:43:22.089Z,50.07
2018-03-19T09:45:49.515Z,45.83
2018-03-19T09:48:17.009Z,59.53
2018-03-19T09:50:44.457Z,46.70
2018-03-19T09:53:12.680Z,57.30
2018-03-19T09:55:40.151Z,51.70
2018-03-19T09:58:07.612Z,56.17
2018-03-19T10:00:35.076Z,51.50
2018-03-19T10:03:02.595Z,52.47
2018-03-19T10:05:30.069Z,54.53
2018-03-19T10:07:57.533Z,49.27
2018-03-19T10:10:25.000Z,58.20
2018-03-19T10:12:53.245Z,53.57
2018-03-19T10:15:20.717Z,49.20
2018-03-19T10:17:48.173Z,57.57
2018-03-19T10:20:15.641Z,44.87
2018-03-19T10:22:43.100Z,51.90
2018-03-19T10:25:10.560Z,52.37
2018-03-19T10:27:38.026Z,50.53
2018-03-19T10:30:05.495Z,48.17
2018-03-19T10:32:32.957Z,47.13
2018-03-19T10:35:00.424Z,50.37
2018-03-19T10:37:27.896Z,50.50
2018-03-19T10:39:56.179Z,53.50
2018-03-19T10:42:23.605Z,51.53
2018-03-19T10:44:51.062Z,48.63
2018-03-19T10:47:18.536Z,51.80
2018-03-19T10:49:46.770Z,43.67
2018-03-19T10:52:14.240Z,45.83
2018-03-19T10:54:41.704Z,48.17
2018-03-19T10:57:09.172Z,47.27
2018-03-19T10:59:36.627Z,47.37
2018-03-19T11:02:09.730Z,45.67
2018-03-19T11:04:37.953Z,54.53
2018-03-19T11:07:11.157Z,48.90
2018-03-19T11:09:47.121Z,41.30
2018-03-19T11:12:14.634Z,44.80
2018-03-19T11:14:42.052Z,50.37
2018-03-19T11:17:09.524Z,52.60
2018-03-19T11:19:37.756Z,43.90
2018-03-19T11:22:05.221Z,51.77
2018-03-19T11:24:32.675Z,48.30
2018-03-19T11:27:00.175Z,46.13
2018-03-19T11:29:28.398Z,43.30
2018-03-19T11:31:55.868Z,47.70
2018-03-19T11:34:23.328Z,46.03
2018-03-19T11:36:50.805Z,44.03
2018-03-19T11:39:18.267Z,45.63
2018-03-19T11:41:45.744Z,45.73
2018-03-19T11:44:13.966Z,47.20
2018-03-19T11:46:42.224Z,48.10
2018-03-19T11:49:09.681Z,49.77
2018-03-19T11:51:37.169Z,50.70
2018-03-19T11:54:05.350Z,51.33
2018-03-19T11:56:32.829Z,46.13
2018-03-19T11:59:00.292Z,53.20
2018-03-19T12:01:27.753Z,48.77
2018-03-19T12:03:55.989Z,51.93
2018-03-19T12:06:24.216Z,56.73
2018-03-19T12:08:52.473Z,53.63
2018-03-19T12:11:19.937Z,54.93
2018-03-19T12:13:47.414Z,50.30
2018-03-19T12:16:15.659Z,46.63
2018-03-19T12:18:43.123Z,52.67
2018-03-19T12:21:10.590Z,42.87
2018-03-19T12:23:38.067Z,47.73
2018-03-19T12:26:05.528Z,54.00
2018-03-19T12:28:33.010Z,43.10
2018-03-19T12:31:00.469Z,48.07
2018-03-19T12:33:27.948Z,41.83
2018-03-19T12:35:55.420Z,46.13
2018-03-19T12:38:22.899Z,51.63
2018-03-19T12:40:51.125Z,43.90
2018-03-19T12:43:18.600Z,49.07
2018-03-19T12:45:46.168Z,45.60
2018-03-19T12:48:13.737Z,50.80
2018-03-19T12:50:41.197Z,53.00
2018-03-19T12:53:08.659Z,51.10
2018-03-19T12:55:36.909Z,49.60
2018-03-19T12:58:04.363Z,44.30
2018-03-19T13:00:31.968Z,46.57
2018-03-19T13:03:00.200Z,47.37
2018-03-19T13:05:27.668Z,44.83
2018-03-19T13:07:55.135Z,47.87
2018-03-19T13:10:22.599Z,39.77
2018-03-19T13:12:50.062Z,43.73
2018-03-19T13:15:18.296Z,43.83
2018-03-19T13:17:46.608Z,41.53
2018-03-19T13:20:14.067Z,44.80
2018-03-19T13:22:41.533Z,55.23
2018-03-19T13:25:09.772Z,48.43
2018-03-19T13:27:37.233Z,49.13
2018-03-19T13:30:04.712Z,44.23
2018-03-19T13:32:32.173Z,49.17
2018-03-19T13:34:59.655Z,48.60
2018-03-19T13:37:27.110Z,44.30
2018-03-19T13:39:54.571Z,42.73
2018-03-19T13:42:22.042Z,44.13
2018-03-19T13:44:49.508Z,41.47
2018-03-19T13:47:16.968Z,42.07
2018-03-19T13:49:44.436Z,51.20
2018-03-19T13:52:11.897Z,49.00
2018-03-19T13:54:39.360Z,44.87
2018-03-19T13:57:06.824Z,49.87
2018-03-19T13:59:34.280Z,50.13
2018-03-19T14:02:01.753Z,49.67
2018-03-19T14:04:29.212Z,53.83
2018-03-19T14:06:56.674Z,41.73
2018-03-19T14:09:24.135Z,49.97
2018-03-19T14:11:52.380Z,50.83
2018-03-19T14:14:19.848Z,45.03
2018-03-19T14:16:47.315Z,44.90
2018-03-19T14:19:14.792Z,40.47
2018-03-19T14:21:43.031Z,43.53
2018-03-19T14:24:11.269Z,44.97
2018-03-19T14:26:38.743Z,45.23
2018-03-19T14:29:07.080Z,49.60
2018-03-19T14:31:35.317Z,42.77
2018-03-19T14:34:02.780Z,46.37
2018-03-19T14:36:30.268Z,42.43
2018-03-19T14:38:58.499Z,48.43
2018-03-19T14:41:25.965Z,41.00
2018-03-19T14:43:53.433Z,50.63
2018-03-19T14:46:20.929Z,45.17
2018-03-19T14:48:48.375Z,43.30
2018-03-19T14:51:16.640Z,43.00
2018-03-19T14:53:44.112Z,41.93
2018-03-19T14:56:12.643Z,41.90
2018-03-19T14:58:40.112Z,44.10
2018-03-19T15:01:07.624Z,46.30
2018-03-19T15:03:35.860Z,47.57
2018-03-19T15:06:03.325Z,41.73
2018-03-19T15:08:30.805Z,44.43
2018-03-19T15:10:59.032Z,51.57
2018-03-19T15:13:26.516Z,43.50
2018-03-19T15:15:53.987Z,46.67
2018-03-19T15:18:22.369Z,44.70
2018-03-19T15:20:50.600Z,41.60
2018-03-19T15:23:18.100Z,44.77
2018-03-19T15:25:46.330Z,46.90
2018-03-19T15:28:13.811Z,42.30
2018-03-19T15:30:41.268Z,42.93
2018-03-19T15:33:08.783Z,46.27
2018-03-19T15:35:36.256Z,46.10
2018-03-19T15:38:03.728Z,51.97
2018-03-19T15:40:31.305Z,39.67
2018-03-19T15:42:59.569Z,47.07
2018-03-19T15:45:27.040Z,43.20
2018-03-19T15:47:54.516Z,50.77
2018-03-19T15:50:22.739Z,42.97
2018-03-19T15:52:50.225Z,45.23
2018-03-19T15:55:17.726Z,51.13
2018-03-19T15:57:45.967Z,49.03
2018-03-19T16:00:13.428Z,47.73
2018-03-19T16:02:40.936Z,48.57
2018-03-19T16:05:08.408Z,48.43
2018-03-19T16:07:35.867Z,50.30
2018-03-19T16:10:03.340Z,53.63
2018-03-19T16:12:30.810Z,54.70
2018-03-19T16:14:58.281Z,53.20
2018-03-19T16:17:25.735Z,55.20
2018-03-19T16:19:53.202Z,49.60
2018-03-19T16:22:21.426Z,52.97
2018-03-19T16:24:48.920Z,48.40
2018-03-19T16:27:16.409Z,49.57
2018-03-19T16:29:43.888Z,54.57
2018-03-19T16:32:11.356Z,51.07
2018-03-19T16:34:38.828Z,48.43
2018-03-19T16:37:07.060Z,49.30
2018-03-19T16:39:35.292Z,49.70
2018-03-19T16:42:02.758Z,48.07
2018-03-19T16:44:30.249Z,49.03
2018-03-19T16:46:58.497Z,47.30
2018-03-19T16:49:25.964Z,50.50
2018-03-19T16:51:54.285Z,51.60
2018-03-19T16:54:21.705Z,56.80
2018-03-19T16:56:49.917Z,54.10
2018-03-19T16:59:17.399Z,57.80
2018-03-19T17:01:44.856Z,57.20
2018-03-19T17:04:12.343Z,57.83
2018-03-19T17:06:39.815Z,64.53
2018-03-19T17:09:08.068Z,50.60
2018-03-19T17:11:35.544Z,55.90
2018-03-19T17:14:03.801Z,54.80
2018-03-19T17:16:31.252Z,51.53
2018-03-19T17:18:58.737Z,52.27
2018-03-19T17:21:26.962Z,53.27
2018-03-19T17:23:54.441Z,50.40
2018-03-19T17:26:21.924Z,54.20
2018-03-19T17:28:50.167Z,48.57
2018-03-19T17:31:17.667Z,48.20
2018-03-19T17:33:45.917Z,49.07
2018-03-19T17:36:13.427Z,52.60
2018-03-19T17:38:40.892Z,57.97
2018-03-19T17:41:08.359Z,49.97
2018-03-19T17:43:35.815Z,47.00
2018-03-19T17:46:03.288Z,57.00
2018-03-19T17:48:30.750Z,57.07
2018-03-19T17:50:58.224Z,59.33
2018-03-19T17:53:25.681Z,51.07
2018-03-19T17:55:53.163Z,64.83
2018-03-19T17:58:21.380Z,52.03
2018-03-19T18:00:48.856Z,56.47
2018-03-19T18:03:16.376Z,53.40
2018-03-19T18:05:43.845Z,55.53
2018-03-19T18:08:11.299Z,57.60
2018-03-19T18:10:38.771Z,44.87
2018-03-19T18:13:06.664Z,47.13
2018-03-19T18:15:34.137Z,48.50
2018-03-19T18:18:02.402Z,48.97
2018-03-19T18:20:29.849Z,51.87
2018-03-19T18:22:57.309Z,58.47
2018-03-19T18:25:24.792Z,51.00
2018-03-19T18:27:52.257Z,47.43
2018-03-19T18:30:20.497Z,36.57
2018-03-19T18:32:47.966Z,41.30
2018-03-19T18:35:15.424Z,40.70
2018-03-19T18:37:42.892Z,40.90
2018-03-19T18:40:11.149Z,39.77
2018-03-19T18:42:38.616Z,36.70
2018-03-19T18:45:06.082Z,37.20
2018-03-19T18:47:33.549Z,38.23
2018-03-19T18:50:01.832Z,41.30
2018-03-19T18:52:29.267Z,41.00
2018-03-19T18:54:56.741Z,46.90
2018-03-19T18:57:24.989Z,41.27
2018-03-19T18:59:52.461Z,39.07
2018-03-19T19:02:19.929Z,41.30
2018-03-19T19:04:48.162Z,42.13
2018-03-19T19:07:15.634Z,43.40
2018-03-19T19:09:43.105Z,37.23
2018-03-19T19:12:10.591Z,40.70
2018-03-19T19:14:38.052Z,41.20
2018-03-19T19:17:05.540Z,48.87
2018-03-19T19:19:33.049Z,38.17
2018-03-19T19:22:01.286Z,39.73
2018-03-19T19:24:28.745Z,39.40
2018-03-19T19:26:56.212Z,36.50
2018-03-19T19:29:23.684Z,45.20
2018-03-19T19:31:51.144Z,37.07
2018-03-19T19:34:18.609Z,48.30
2018-03-19T19:36:46.837Z,39.07
2018-03-19T19:39:14.308Z,41.40
2018-03-19T19:41:41.777Z,49.67
2018-03-19T19:44:09.252Z,38.97
2018-03-19T19:46:36.735Z,43.23
2018-03-19T19:49:04.217Z,44.53
2018-03-19T19:51:31.673Z,41.80
2018-03-19T19:53:59.146Z,45.97
2018-03-19T19:56:26.616Z,44.40
2018-03-19T19:58:54.085Z,37.17
2018-03-19T20:01:21.548Z,34.50
2018-03-19T20:03:49.032Z,41.23
2018-03-19T20:06:17.284Z,45.60
2018-03-19T20:08:44.787Z,41.53
2018-03-19T20:11:12.248Z,51.13
2018-03-19T20:13:39.730Z,46.77
2018-03-19T20:16:07.188Z,45.30
2018-03-19T20:18:34.659Z,45.47
2018-03-19T20:21:02.883Z,42.03
2018-03-19T20:23:30.351Z,40.80
2018-03-19T20:25:57.809Z,36.53
2018-03-19T20:28:25.280Z,45.77
2018-03-19T20:30:52.747Z,42.40
2018-03-19T20:33:20.235Z,45.10
2018-03-19T20:35:47.696Z,43.27
2018-03-19T20:38:15.162Z,47.80
2018-03-19T20:40:42.644Z,45.87
2018-03-19T20:43:10.115Z,39.60
2018-03-19T20:45:37.592Z,41.90
2018-03-19T20:48:05.045Z,38.30
2018-03-19T20:50:32.524Z,43.10
2018-03-19T20:52:59.988Z,45.37
2018-03-19T20:55:27.464Z,48.57
2018-03-19T20:57:55.697Z,49.83
2018-03-19T21:00:23.177Z,49.30
2018-03-19T21:02:50.633Z,50.83
2018-03-19T21:05:18.105Z,47.87
2018-03-19T21:07:45.571Z,48.70
2018-03-19T21:10:13.813Z,48.43
2018-03-19T21:12:41.271Z,48.60
2018-03-19T21:15:08.749Z,38.97
2018-03-19T21:17:36.252Z,45.33
2018-03-19T21:20:03.728Z,44.63
2018-03-19T21:22:31.211Z,48.27
2018-03-19T21:24:58.685Z,46.67
2018-03-19T21:27:26.913Z,48.03
2018-03-19T21:29:54.465Z,45.50
2018-03-19T21:32:21.918Z,48.30
2018-03-19T21:34:49.390Z,46.13
2018-03-19T21:37:16.860Z,42.60
2018-03-19T21:39:44.336Z,49.93
2018-03-19T21:42:11.799Z,51.60
2018-03-19T21:44:39.267Z,50.50
2018-03-19T21:47:06.725Z,47.37
2018-03-19T21:49:34.186Z,43.90
2018-03-19T21:52:02.440Z,55.37
2018-03-19T21:54:29.904Z,66.63
2018-03-19T21:56:57.371Z,46.70
2018-03-19T21:59:24.839Z,56.60
2018-03-19T22:01:52.308Z,46.17
2018-03-19T22:04:20.541Z,51.80
2018-03-19T22:06:48.020Z,41.77
2018-03-19T22:09:15.475Z,42.87
2018-03-19T22:11:42.950Z,49.43
2018-03-19T22:14:11.175Z,50.23
2018-03-19T22:16:38.639Z,48.23
2018-03-19T22:19:06.108Z,44.40
2018-03-19T22:21:33.584Z,51.60
2018-03-19T22:24:01.041Z,52.37
2018-03-19T22:26:28.512Z,45.73
2018-03-19T22:28:56.741Z,45.90
2018-03-19T22:31:24.209Z,47.53
2018-03-19T22:33:51.679Z,51.63
2018-03-19T22:36:19.151Z,53.20
2018-03-19T22:38:47.397Z,56.23
2018-03-19T22:41:14.863Z,58.30
2018-03-19T22:43:42.328Z,47.80
2018-03-19T22:46:09.799Z,46.83
2018-03-19T22:48:37.257Z,53.57
2018-03-19T22:51:04.722Z,55.07
2018-03-19T22:53:32.943Z,57.10
2018-03-19T22:56:00.418Z,53.20
2018-03-19T22:58:27.883Z,51.40
2018-03-19T23:00:55.352Z,46.73
2018-03-19T23:03:22.816Z,55.60
2018-03-19T23:05:50.287Z,47.93
2018-03-19T23:08:18.524Z,52.93
2018-03-19T23:10:45.986Z,44.97
2018-03-19T23:13:13.447Z,56.30
2018-03-19T23:15:40.916Z,51.60
2018-03-19T23:18:08.375Z,50.80
2018-03-19T23:20:35.843Z,50.77
2018-03-19T23:23:04.109Z,55.63
2018-03-19T23:25:31.588Z,63.23
2018-03-19T23:27:59.828Z,50.40
2018-03-19T23:30:27.296Z,51.43
2018-03-19T23:32:54.766Z,58.33
2018-03-19T23:35:22.995Z,56.43
2018-03-19T23:37:50.481Z,55.03
2018-03-19T23:40:18.343Z,48.23
2018-03-19T23:42:45.814Z,51.67
2018-03-19T23:45:13.269Z,55.47
2018-03-19T23:47:40.761Z,49.03
2018-03-19T23:50:08.225Z,54.27
2018-03-19T23:52:35.703Z,58.80
2018-03-19T23:55:03.157Z,53.90
2018-03-19T23:57:30.627Z,54.10
2018-03-19T23:59:58.091Z,54.47
